首页
METAR-TAF:

METAR-TAF

机场 :

Corinth, 密西西比州, 美国

纬度: 34-54-54N, 经度: 088-36-13W, 海拔: 130米

当前天气观测

该预报发布于16分钟前的05:35 UTC
风速6节,风向
温度 3°C
湿度 75%
气压 1023 hPa
能見度: 16.1公里
天空无云

METAR: KCRX 120535Z AUTO 17006KT 10SM CLR 03/M01 A3022 RMK AO2

时间: 23:51 (05:51 UTC)


TAF: 丢失

超过4000个机场的气象观测和天气预报(METAR&TAF报告)。

可查询的气象台以黄色和红色小点在地图上表示。

将鼠标移到小点上方,可查看气象台名称。

然后点击查看天气观测和预报。

如需切换地图:点击带黑十字的绿色按钮放大地图;点击带横线的绿色按钮缩小地图;或者点击绿色箭头查看邻近地区的地图。


METAR-TAF: